Yerseke, Netherlands
Current Conditions -  °F | °C
As of 8:55 PM on Saturday 25 Oct 2014 (Local Time) from EHWO Reporting Station
Clear Clear  
Wind Chill: 52°   Ceiling: Unl
Heat Index: 52°   Visibility: 6mi
Dew Point: 45°   Wind: 5mph
Humidity: 76%   Direction: 210°SSW
Pressure: 30.15"   Gusts: NA
Location:  51.49°N, 4.05°E
Report Text: EHWO 251855Z AUTO 21004KT 9999 NCD 11/07 Q1021 BLU
Loading
Personal Weather Stations






























Interactive Weather Map
Tropical Storm Tracking
New forecast layout! Learn more

10-Day Weather Forecast

Advertisements
Track Severe Weather on mobile